»·PEaware :: AAL115 KLGB-KSFO

AAL115 :: KLGB-KSFO

FLIGHT INFORMATION

Flight Status: Arrived
Operator:
American Airlines
More flights by this operator :: More flights under this callsign
Pilot: Sergei F. (8485)
Aircraft: BOEING 757-200
(B752)
More flights by this aircraft type
Origin: KLGB Long Beach
United States
Destination: KSFO San Francisco Intl
United States
More flights between these airports :: More routes between these airports
Route: +VTU IKAYE RZS J501 BSR BSR3
File this flight plan on PilotEdge
Remarks:
Altitude:
(Current/Filed)
380ft
Speed:
(Current/Filed)
300kts
Departed: 30-Dec-17 07:33 PM
Arrived: 30-Dec-17 08:33 PM
Distance/Time
Traveled:
307nm/0:59
Distance/Time
To Go:
Arrived

Flight Plot

Page will automatically refresh every two minutes.

Flight plan parsing failed; only flown route is shown


Map Options




Map Legend


Flown Route
Filed Route
Departure Airport
Arrival Airport
Navaid (VOR, NDB)
Fix

Horizontal Profiles

Position Reports

Time Latitude Longitude Heading Altitude Ground
Speed
30-Dec-17 18:56 33.817801 -118.146118 89 43ft 0kts
30-Dec-17 18:57 33.817801 -118.146118 89 43ft 0kts
30-Dec-17 18:58 33.817801 -118.146118 89 43ft 0kts
30-Dec-17 18:59 33.817801 -118.146118 89 43ft 0kts
30-Dec-17 19:00 33.817801 -118.146118 89 43ft 0kts
30-Dec-17 19:01 33.817801 -118.146118 89 43ft 0kts
30-Dec-17 19:02 33.817801 -118.146118 89 43ft 0kts
30-Dec-17 19:03 33.817801 -118.146118 89 43ft 0kts
30-Dec-17 19:04 33.817801 -118.146118 89 43ft 0kts
30-Dec-17 19:05 33.817801 -118.146118 89 43ft 0kts
30-Dec-17 19:06 33.817801 -118.146118 89 43ft 0kts
30-Dec-17 19:07 33.817801 -118.146118 89 43ft 0kts
30-Dec-17 19:08 33.817801 -118.146118 89 43ft 0kts
30-Dec-17 19:09 33.817801 -118.146118 89 43ft 0kts
30-Dec-17 19:10 33.817801 -118.146118 89 43ft 0kts
30-Dec-17 19:11 33.817801 -118.146118 89 43ft 0kts
30-Dec-17 19:12 33.817801 -118.146118 89 43ft 0kts
30-Dec-17 19:13 33.817801 -118.146118 89 43ft 0kts
30-Dec-17 19:14 33.817801 -118.146118 89 43ft 0kts
30-Dec-17 19:15 33.817801 -118.146118 89 43ft 0kts
30-Dec-17 19:16 33.817801 -118.146118 89 43ft 0kts
30-Dec-17 19:17 33.817801 -118.146118 89 43ft 0kts
30-Dec-17 19:18 33.817801 -118.146118 89 43ft 0kts
30-Dec-17 19:19 33.817801 -118.146118 89 43ft 0kts
30-Dec-17 19:20 33.817801 -118.146118 89 43ft 0kts
30-Dec-17 19:21 33.817801 -118.146118 89 43ft 0kts
30-Dec-17 19:22 33.817801 -118.146118 89 43ft 0kts
30-Dec-17 19:23 33.817801 -118.146118 89 43ft 0kts
30-Dec-17 19:24 33.817800 -118.146163 89 43ft 1kts
30-Dec-17 19:25 33.817790 -118.146716 100 44ft 2kts
30-Dec-17 19:26 33.818214 -118.146988 182 44ft 0kts
30-Dec-17 19:27 33.818214 -118.146988 182 44ft 0kts
30-Dec-17 19:28 33.818213 -118.146988 182 44ft 0kts
30-Dec-17 19:29 33.818213 -118.146988 182 44ft 0kts
30-Dec-17 19:30 33.818213 -118.146988 182 44ft 0kts
30-Dec-17 19:31 33.817514 -118.146998 179 44ft 5kts
30-Dec-17 19:32 33.815627 -118.146834 145 42ft 8kts
30-Dec-17 19:33 33.813952 -118.144842 135 39ft 8kts
30-Dec-17 19:34 33.812270 -118.142800 135 36ft 8kts
30-Dec-17 19:35 33.810590 -118.140769 134 34ft 7kts
30-Dec-17 19:36 33.809224 -118.139122 134 34ft 6kts
30-Dec-17 19:37 33.807748 -118.137591 177 33ft 7kts
30-Dec-17 19:38 33.807385 -118.138788 313 34ft 0kts
30-Dec-17 19:39 33.822372 -118.156684 316 640ft 153kts
30-Dec-17 19:40 33.845469 -118.197337 281 2210ft 160kts
30-Dec-17 19:41 33.854566 -118.253597 281 3340ft 199kts
30-Dec-17 19:42 33.865912 -118.319391 281 3987ft 216kts
30-Dec-17 19:43 33.878414 -118.390154 282 3999ft 224kts
30-Dec-17 19:44 33.880860 -118.464680 262 4908ft 224kts
30-Dec-17 19:45 33.870974 -118.542856 262 7408ft 253kts
30-Dec-17 19:46 33.860157 -118.628659 262 10012ft 268kts
30-Dec-17 19:47 33.882963 -118.708316 304 12601ft 271kts
30-Dec-17 19:48 33.928272 -118.784389 304 14638ft 288kts
30-Dec-17 19:49 33.975569 -118.863688 304 16647ft 298kts
30-Dec-17 19:50 34.024576 -118.946020 303 18661ft 308kts
30-Dec-17 19:51 34.066608 -119.016778 303 20338ft 314kts
30-Dec-17 19:52 34.125182 -119.115611 303 22629ft 318kts
30-Dec-17 19:53 34.167692 -119.187505 302 24273ft 316kts
30-Dec-17 19:54 34.219911 -119.276064 302 25477ft 338kts
30-Dec-17 19:55 34.286516 -119.389294 303 26662ft 369kts
30-Dec-17 19:56 34.337459 -119.476135 303 27355ft 393kts
30-Dec-17 19:57 34.402029 -119.586493 302 28545ft 410kts
30-Dec-17 19:58 34.468707 -119.700835 302 29536ft 429kts
30-Dec-17 19:59 34.549093 -119.813362 314 30429ft 452kts
30-Dec-17 20:00 34.641586 -119.914746 314 32284ft 446kts
30-Dec-17 20:01 34.732734 -120.014523 314 34096ft 440kts
30-Dec-17 20:02 34.823002 -120.113580 313 35722ft 435kts
30-Dec-17 20:03 34.912488 -120.212067 313 36755ft 437kts
30-Dec-17 20:04 35.003181 -120.312186 313 37677ft 443kts
30-Dec-17 20:05 35.094382 -120.413178 313 38105ft 445kts
30-Dec-17 20:06 35.183619 -120.512294 313 38096ft 445kts
30-Dec-17 20:07 35.275059 -120.614186 313 38094ft 445kts
30-Dec-17 20:08 35.365545 -120.715335 312 38103ft 444kts
30-Dec-17 20:09 35.456398 -120.817212 312 38092ft 444kts
30-Dec-17 20:10 35.547714 -120.919952 312 38083ft 444kts
30-Dec-17 20:11 35.638093 -121.021964 312 38082ft 446kts
30-Dec-17 20:12 35.727692 -121.123387 312 36461ft 434kts
30-Dec-17 20:13 35.815280 -121.222924 312 34293ft 434kts
30-Dec-17 20:14 35.903770 -121.323783 312 31965ft 438kts
30-Dec-17 20:15 35.993615 -121.426503 313 29724ft 443kts
30-Dec-17 20:16 36.081887 -121.527705 313 27630ft 428kts
30-Dec-17 20:17 36.162346 -121.620259 313 25775ft 417kts
30-Dec-17 20:18 36.254060 -121.704887 320 23845ft 409kts
30-Dec-17 20:19 36.345732 -121.784495 321 21948ft 398kts
30-Dec-17 20:20 36.434557 -121.861736 321 20148ft 386kts
30-Dec-17 20:21 36.537926 -121.903570 342 20092ft 396kts
30-Dec-17 20:22 36.646099 -121.935486 343 18189ft 397kts
30-Dec-17 20:23 36.748066 -121.965347 344 15260ft 368kts
30-Dec-17 20:24 36.845940 -121.990904 345 12892ft 357kts
30-Dec-17 20:25 36.941227 -122.015828 346 11175ft 346kts
30-Dec-17 20:26 37.032747 -122.039815 346 10162ft 316kts
30-Dec-17 20:27 37.111013 -122.060385 346 9737ft 277kts
30-Dec-17 20:28 37.185412 -122.079993 346 8688ft 271kts
30-Dec-17 20:29 37.257763 -122.099090 346 7779ft 257kts
30-Dec-17 20:30 37.324119 -122.116640 347 7005ft 234kts
30-Dec-17 20:31 37.387395 -122.133409 347 5914ft 226kts
30-Dec-17 20:32 37.445048 -122.148709 347 4648ft 202kts
30-Dec-17 20:33 37.497820 -122.163229 347 3344ft 191kts
30-Dec-17 20:34 37.540802 -122.186713 294 2997ft 154kts
30-Dec-17 20:35 37.559543 -122.234012 298 2226ft 150kts
30-Dec-17 20:36 37.578895 -122.280596 298 1390ft 145kts
30-Dec-17 20:37 37.597311 -122.324252 298 599ft 140kts
30-Dec-17 20:38 37.615224 -122.366707 297 15ft 117kts
30-Dec-17 20:39 37.618945 -122.378664 268 32ft 7kts
30-Dec-17 20:40 37.619287 -122.381112 297 34ft 9kts
30-Dec-17 20:41 37.618395 -122.382089 134 34ft 2kts
30-Dec-17 20:42 37.618355 -122.382037 135 34ft 0kts
30-Dec-17 20:43 37.618355 -122.382037 135 34ft 0kts
30-Dec-17 20:44 37.618355 -122.382038 135 34ft 0kts
30-Dec-17 20:45 37.618355 -122.382038 135 34ft 0kts
30-Dec-17 20:46 37.618355 -122.382038 135 35ft 0kts

Navigation Log

Ident Type
Flight plan parsing failed, navigation log unavailable